sensor_id;sensor_type;location;lat;lon;timestamp;P1;durP1;ratioP1;P2;durP2;ratioP2
34405;SDS011;20658;45.630;8.886;2022-11-15T00:00:06;34.42;;;23.40;;
34405;SDS011;20658;45.630;8.886;2022-11-15T00:03:00;31.75;;;20.23;;
34405;SDS011;20658;45.630;8.886;2022-11-15T00:05:52;29.75;;;19.58;;
34405;SDS011;20658;45.630;8.886;2022-11-15T00:08:44;30.40;;;19.90;;
34405;SDS011;20658;45.630;8.886;2022-11-15T00:11:36;31.00;;;18.60;;
34405;SDS011;20658;45.630;8.886;2022-11-15T00:14:23;32.25;;;21.83;;
34405;SDS011;20658;45.630;8.886;2022-11-15T00:17:16;30.90;;;19.98;;
34405;SDS011;20658;45.630;8.886;2022-11-15T00:20:08;33.92;;;21.85;;
34405;SDS011;20658;45.630;8.886;2022-11-15T00:23:02;32.88;;;18.77;;
34405;SDS011;20658;45.630;8.886;2022-11-15T00:25:55;29.83;;;18.80;;
34405;SDS011;20658;45.630;8.886;2022-11-15T00:28:48;32.22;;;18.80;;
34405;SDS011;20658;45.630;8.886;2022-11-15T00:31:39;29.95;;;18.65;;
34405;SDS011;20658;45.630;8.886;2022-11-15T00:34:28;29.63;;;19.60;;
34405;SDS011;20658;45.630;8.886;2022-11-15T00:37:19;28.50;;;19.23;;
34405;SDS011;20658;45.630;8.886;2022-11-15T00:40:07;30.15;;;17.45;;
34405;SDS011;20658;45.630;8.886;2022-11-15T00:42:57;29.60;;;18.30;;
34405;SDS011;20658;45.630;8.886;2022-11-15T00:45:44;30.27;;;19.50;;
34405;SDS011;20658;45.630;8.886;2022-11-15T00:48:31;32.28;;;21.23;;
34405;SDS011;20658;45.630;8.886;2022-11-15T00:51:24;34.95;;;20.63;;
34405;SDS011;20658;45.630;8.886;2022-11-15T00:54:11;27.50;;;18.23;;
34405;SDS011;20658;45.630;8.886;2022-11-15T00:56:58;30.58;;;18.63;;
34405;SDS011;20658;45.630;8.886;2022-11-15T00:59:49;29.73;;;18.52;;
34405;SDS011;20658;45.630;8.886;2022-11-15T01:02:41;29.75;;;18.02;;
34405;SDS011;20658;45.630;8.886;2022-11-15T01:05:33;27.48;;;17.40;;
34405;SDS011;20658;45.630;8.886;2022-11-15T01:08:29;27.63;;;16.90;;
34405;SDS011;20658;45.630;8.886;2022-11-15T01:11:21;27.15;;;16.90;;
34405;SDS011;20658;45.630;8.886;2022-11-15T01:14:13;29.35;;;17.85;;
34405;SDS011;20658;45.630;8.886;2022-11-15T01:17:00;26.80;;;18.17;;
34405;SDS011;20658;45.630;8.886;2022-11-15T01:19:47;28.83;;;17.92;;
34405;SDS011;20658;45.630;8.886;2022-11-15T01:22:34;30.63;;;17.55;;
34405;SDS011;20658;45.630;8.886;2022-11-15T01:25:22;26.83;;;16.33;;
34405;SDS011;20658;45.630;8.886;2022-11-15T01:28:14;30.00;;;16.65;;
34405;SDS011;20658;45.630;8.886;2022-11-15T01:31:07;25.40;;;15.52;;
34405;SDS011;20658;45.630;8.886;2022-11-15T01:34:03;28.77;;;16.45;;
34405;SDS011;20658;45.630;8.886;2022-11-15T01:36:55;24.75;;;14.65;;
34405;SDS011;20658;45.630;8.886;2022-11-15T01:39:47;29.58;;;16.40;;
34405;SDS011;20658;45.630;8.886;2022-11-15T01:42:40;23.63;;;13.85;;
34405;SDS011;20658;45.630;8.886;2022-11-15T01:45:33;24.67;;;14.90;;
34405;SDS011;20658;45.630;8.886;2022-11-15T01:48:20;26.08;;;14.50;;
34405;SDS011;20658;45.630;8.886;2022-11-15T01:51:10;24.23;;;15.15;;
34405;SDS011;20658;45.630;8.886;2022-11-15T01:54:02;26.92;;;14.15;;
34405;SDS011;20658;45.630;8.886;2022-11-15T01:56:54;25.58;;;15.30;;
34405;SDS011;20658;45.630;8.886;2022-11-15T01:59:57;25.60;;;15.52;;
34405;SDS011;20658;45.630;8.886;2022-11-15T02:02:51;24.25;;;14.57;;
34405;SDS011;20658;45.630;8.886;2022-11-15T02:05:43;23.95;;;14.43;;
34405;SDS011;20658;45.630;8.886;2022-11-15T02:08:35;24.30;;;14.18;;
34405;SDS011;20658;45.630;8.886;2022-11-15T02:11:27;24.23;;;14.90;;
34405;SDS011;20658;45.630;8.886;2022-11-15T02:14:19;23.58;;;14.30;;
34405;SDS011;20658;45.630;8.886;2022-11-15T02:17:18;24.33;;;15.07;;
34405;SDS011;20658;45.630;8.886;2022-11-15T02:20:32;24.92;;;14.60;;
34405;SDS011;20658;45.630;8.886;2022-11-15T02:31:09;20.73;;;11.85;;
34405;SDS011;20658;45.630;8.886;2022-11-15T02:34:02;25.35;;;14.05;;
34405;SDS011;20658;45.630;8.886;2022-11-15T02:36:56;27.88;;;15.80;;
34405;SDS011;20658;45.630;8.886;2022-11-15T02:39:50;22.25;;;13.18;;
34405;SDS011;20658;45.630;8.886;2022-11-15T02:42:43;26.80;;;13.82;;
34405;SDS011;20658;45.630;8.886;2022-11-15T02:46:00;25.10;;;14.63;;
34405;SDS011;20658;45.630;8.886;2022-11-15T02:48:55;22.70;;;12.98;;
34405;SDS011;20658;45.630;8.886;2022-11-15T02:51:42;25.63;;;14.75;;
34405;SDS011;20658;45.630;8.886;2022-11-15T02:54:38;24.55;;;13.52;;
34405;SDS011;20658;45.630;8.886;2022-11-15T02:57:28;25.10;;;13.80;;
34405;SDS011;20658;45.630;8.886;2022-11-15T03:00:35;25.35;;;14.18;;
34405;SDS011;20658;45.630;8.886;2022-11-15T03:03:41;24.98;;;14.57;;
34405;SDS011;20658;45.630;8.886;2022-11-15T03:06:44;26.73;;;14.45;;
34405;SDS011;20658;45.630;8.886;2022-11-15T03:09:39;33.35;;;17.17;;
34405;SDS011;20658;45.630;8.886;2022-11-15T03:12:36;28.13;;;15.00;;
34405;SDS011;20658;45.630;8.886;2022-11-15T03:15:36;23.90;;;15.15;;
34405;SDS011;20658;45.630;8.886;2022-11-15T03:18:30;26.67;;;15.48;;
34405;SDS011;20658;45.630;8.886;2022-11-15T03:21:21;28.48;;;16.55;;
34405;SDS011;20658;45.630;8.886;2022-11-15T03:24:09;24.23;;;14.70;;
34405;SDS011;20658;45.630;8.886;2022-11-15T03:26:59;25.85;;;15.30;;
34405;SDS011;20658;45.630;8.886;2022-11-15T03:29:48;25.52;;;14.82;;
34405;SDS011;20658;45.630;8.886;2022-11-15T03:32:44;24.50;;;15.43;;
34405;SDS011;20658;45.630;8.886;2022-11-15T03:35:41;24.83;;;13.93;;
34405;SDS011;20658;45.630;8.886;2022-11-15T03:38:37;21.95;;;12.88;;
34405;SDS011;20658;45.630;8.886;2022-11-15T03:41:28;21.45;;;13.38;;
34405;SDS011;20658;45.630;8.886;2022-11-15T03:44:31;24.67;;;15.40;;
34405;SDS011;20658;45.630;8.886;2022-11-15T03:47:27;22.95;;;14.18;;
34405;SDS011;20658;45.630;8.886;2022-11-15T03:50:24;26.05;;;14.57;;
34405;SDS011;20658;45.630;8.886;2022-11-15T03:53:16;27.98;;;13.93;;
34405;SDS011;20658;45.630;8.886;2022-11-15T03:56:05;26.45;;;13.52;;
34405;SDS011;20658;45.630;8.886;2022-11-15T03:58:58;22.90;;;12.75;;
34405;SDS011;20658;45.630;8.886;2022-11-15T04:01:44;22.73;;;12.80;;
34405;SDS011;20658;45.630;8.886;2022-11-15T04:04:31;25.10;;;14.13;;
34405;SDS011;20658;45.630;8.886;2022-11-15T04:07:23;24.90;;;13.68;;
34405;SDS011;20658;45.630;8.886;2022-11-15T04:10:16;22.35;;;12.77;;
34405;SDS011;20658;45.630;8.886;2022-11-15T04:13:09;23.17;;;13.00;;
34405;SDS011;20658;45.630;8.886;2022-11-15T04:15:56;22.83;;;13.10;;
34405;SDS011;20658;45.630;8.886;2022-11-15T04:18:48;23.50;;;14.27;;
34405;SDS011;20658;45.630;8.886;2022-11-15T04:21:59;19.92;;;12.55;;
34405;SDS011;20658;45.630;8.886;2022-11-15T04:25:11;25.30;;;14.32;;
34405;SDS011;20658;45.630;8.886;2022-11-15T04:28:03;21.70;;;13.25;;
34405;SDS011;20658;45.630;8.886;2022-11-15T04:30:56;20.95;;;12.32;;
34405;SDS011;20658;45.630;8.886;2022-11-15T04:33:48;19.23;;;11.63;;
34405;SDS011;20658;45.630;8.886;2022-11-15T04:36:40;21.05;;;12.27;;
34405;SDS011;20658;45.630;8.886;2022-11-15T04:39:50;22.17;;;12.80;;
34405;SDS011;20658;45.630;8.886;2022-11-15T04:42:42;19.58;;;11.95;;
34405;SDS011;20658;45.630;8.886;2022-11-15T04:45:34;21.23;;;12.65;;
34405;SDS011;20658;45.630;8.886;2022-11-15T04:48:27;23.33;;;13.00;;
34405;SDS011;20658;45.630;8.886;2022-11-15T04:51:19;19.90;;;11.23;;
34405;SDS011;20658;45.630;8.886;2022-11-15T04:54:11;20.85;;;12.23;;
34405;SDS011;20658;45.630;8.886;2022-11-15T04:57:03;19.35;;;11.75;;
34405;SDS011;20658;45.630;8.886;2022-11-15T04:59:55;24.52;;;12.60;;
34405;SDS011;20658;45.630;8.886;2022-11-15T05:02:46;22.13;;;11.75;;
34405;SDS011;20658;45.630;8.886;2022-11-15T05:05:58;21.92;;;12.75;;
34405;SDS011;20658;45.630;8.886;2022-11-15T05:08:50;20.00;;;11.90;;
34405;SDS011;20658;45.630;8.886;2022-11-15T05:11:37;20.65;;;11.82;;
34405;SDS011;20658;45.630;8.886;2022-11-15T05:14:29;21.20;;;12.13;;
34405;SDS011;20658;45.630;8.886;2022-11-15T05:17:21;20.10;;;11.77;;
34405;SDS011;20658;45.630;8.886;2022-11-15T05:20:13;19.23;;;12.00;;
34405;SDS011;20658;45.630;8.886;2022-11-15T05:25:58;20.73;;;11.88;;
34405;SDS011;20658;45.630;8.886;2022-11-15T05:28:54;20.50;;;11.75;;
34405;SDS011;20658;45.630;8.886;2022-11-15T05:31:47;19.67;;;11.25;;
34405;SDS011;20658;45.630;8.886;2022-11-15T05:34:39;24.25;;;12.45;;
34405;SDS011;20658;45.630;8.886;2022-11-15T05:37:26;23.33;;;12.55;;
34405;SDS011;20658;45.630;8.886;2022-11-15T05:40:21;24.73;;;12.60;;
34405;SDS011;20658;45.630;8.886;2022-11-15T05:43:13;25.08;;;14.02;;
34405;SDS011;20658;45.630;8.886;2022-11-15T05:46:00;30.92;;;15.18;;
34405;SDS011;20658;45.630;8.886;2022-11-15T05:48:55;27.35;;;14.68;;
34405;SDS011;20658;45.630;8.886;2022-11-15T05:51:49;22.50;;;12.63;;
34405;SDS011;20658;45.630;8.886;2022-11-15T05:54:36;20.63;;;11.32;;
34405;SDS011;20658;45.630;8.886;2022-11-15T06:00:22;28.30;;;14.85;;
34405;SDS011;20658;45.630;8.886;2022-11-15T06:03:14;24.42;;;13.75;;
34405;SDS011;20658;45.630;8.886;2022-11-15T06:06:06;27.60;;;13.95;;
34405;SDS011;20658;45.630;8.886;2022-11-15T06:08:58;25.27;;;12.90;;
34405;SDS011;20658;45.630;8.886;2022-11-15T06:11:50;24.45;;;13.05;;
34405;SDS011;20658;45.630;8.886;2022-11-15T06:14:43;25.50;;;12.63;;
34405;SDS011;20658;45.630;8.886;2022-11-15T06:17:35;20.83;;;12.75;;
34405;SDS011;20658;45.630;8.886;2022-11-15T06:20:27;23.67;;;12.35;;
34405;SDS011;20658;45.630;8.886;2022-11-15T06:23:15;22.75;;;13.00;;
34405;SDS011;20658;45.630;8.886;2022-11-15T06:26:07;21.25;;;13.23;;
34405;SDS011;20658;45.630;8.886;2022-11-15T06:28:54;26.00;;;14.20;;
34405;SDS011;20658;45.630;8.886;2022-11-15T06:31:48;27.35;;;17.48;;
34405;SDS011;20658;45.630;8.886;2022-11-15T06:34:39;29.35;;;19.67;;
34405;SDS011;20658;45.630;8.886;2022-11-15T06:37:31;34.67;;;23.60;;
34405;SDS011;20658;45.630;8.886;2022-11-15T06:40:20;34.63;;;23.52;;
34405;SDS011;20658;45.630;8.886;2022-11-15T06:43:12;36.40;;;24.80;;
34405;SDS011;20658;45.630;8.886;2022-11-15T06:46:06;32.78;;;22.92;;
34405;SDS011;20658;45.630;8.886;2022-11-15T06:48:59;31.02;;;20.65;;
34405;SDS011;20658;45.630;8.886;2022-11-15T06:51:51;33.67;;;23.67;;
34405;SDS011;20658;45.630;8.886;2022-11-15T06:54:43;37.33;;;26.77;;
34405;SDS011;20658;45.630;8.886;2022-11-15T06:57:30;39.35;;;26.25;;
34405;SDS011;20658;45.630;8.886;2022-11-15T07:00:18;43.92;;;28.48;;
34405;SDS011;20658;45.630;8.886;2022-11-15T07:03:12;44.53;;;31.38;;
34405;SDS011;20658;45.630;8.886;2022-11-15T07:06:05;41.53;;;27.02;;
34405;SDS011;20658;45.630;8.886;2022-11-15T07:08:53;35.75;;;22.05;;
34405;SDS011;20658;45.630;8.886;2022-11-15T07:11:40;29.77;;;18.83;;
34405;SDS011;20658;45.630;8.886;2022-11-15T07:14:27;29.98;;;19.40;;
34405;SDS011;20658;45.630;8.886;2022-11-15T07:17:14;26.92;;;16.65;;
34405;SDS011;20658;45.630;8.886;2022-11-15T07:20:01;29.13;;;16.90;;
34405;SDS011;20658;45.630;8.886;2022-11-15T07:22:50;26.88;;;15.35;;
34405;SDS011;20658;45.630;8.886;2022-11-15T07:25:42;21.88;;;13.38;;
34405;SDS011;20658;45.630;8.886;2022-11-15T07:28:29;24.88;;;13.88;;
34405;SDS011;20658;45.630;8.886;2022-11-15T07:31:16;23.85;;;13.95;;
34405;SDS011;20658;45.630;8.886;2022-11-15T07:34:03;24.77;;;14.10;;
34405;SDS011;20658;45.630;8.886;2022-11-15T07:36:49;25.08;;;15.13;;
34405;SDS011;20658;45.630;8.886;2022-11-15T07:39:43;24.60;;;14.05;;
34405;SDS011;20658;45.630;8.886;2022-11-15T07:42:30;24.20;;;15.15;;
34405;SDS011;20658;45.630;8.886;2022-11-15T07:45:39;24.23;;;15.23;;
34405;SDS011;20658;45.630;8.886;2022-11-15T07:48:33;23.23;;;15.45;;
34405;SDS011;20658;45.630;8.886;2022-11-15T07:51:19;25.90;;;17.30;;
34405;SDS011;20658;45.630;8.886;2022-11-15T07:54:06;27.67;;;18.75;;
34405;SDS011;20658;45.630;8.886;2022-11-15T07:56:55;29.15;;;18.77;;
34405;SDS011;20658;45.630;8.886;2022-11-15T07:59:47;24.90;;;15.63;;
34405;SDS011;20658;45.630;8.886;2022-11-15T08:02:39;25.80;;;16.08;;
34405;SDS011;20658;45.630;8.886;2022-11-15T08:05:31;24.45;;;14.55;;
34405;SDS011;20658;45.630;8.886;2022-11-15T08:08:18;22.05;;;13.52;;
34405;SDS011;20658;45.630;8.886;2022-11-15T08:11:10;23.33;;;12.75;;
34405;SDS011;20658;45.630;8.886;2022-11-15T08:13:59;25.13;;;14.75;;
34405;SDS011;20658;45.630;8.886;2022-11-15T08:16:51;23.58;;;14.75;;
34405;SDS011;20658;45.630;8.886;2022-11-15T08:19:37;24.55;;;15.65;;
34405;SDS011;20658;45.630;8.886;2022-11-15T08:22:29;25.65;;;15.27;;
34405;SDS011;20658;45.630;8.886;2022-11-15T08:25:22;24.35;;;15.85;;
34405;SDS011;20658;45.630;8.886;2022-11-15T08:28:11;23.13;;;14.18;;
34405;SDS011;20658;45.630;8.886;2022-11-15T08:30:59;23.00;;;14.02;;
34405;SDS011;20658;45.630;8.886;2022-11-15T08:33:51;29.10;;;16.23;;
34405;SDS011;20658;45.630;8.886;2022-11-15T08:36:43;22.95;;;13.02;;
34405;SDS011;20658;45.630;8.886;2022-11-15T08:39:38;22.50;;;13.88;;
34405;SDS011;20658;45.630;8.886;2022-11-15T08:42:30;24.08;;;15.63;;
34405;SDS011;20658;45.630;8.886;2022-11-15T08:45:17;27.30;;;15.65;;
34405;SDS011;20658;45.630;8.886;2022-11-15T08:48:06;25.83;;;15.90;;
34405;SDS011;20658;45.630;8.886;2022-11-15T08:50:53;25.13;;;15.95;;
34405;SDS011;20658;45.630;8.886;2022-11-15T08:53:45;24.02;;;14.63;;
34405;SDS011;20658;45.630;8.886;2022-11-15T08:56:32;27.38;;;16.58;;
34405;SDS011;20658;45.630;8.886;2022-11-15T08:59:24;27.15;;;15.63;;
34405;SDS011;20658;45.630;8.886;2022-11-15T09:02:16;28.60;;;17.02;;
34405;SDS011;20658;45.630;8.886;2022-11-15T09:05:09;28.15;;;13.90;;
34405;SDS011;20658;45.630;8.886;2022-11-15T09:07:56;26.15;;;14.85;;
34405;SDS011;20658;45.630;8.886;2022-11-15T09:10:48;27.70;;;15.05;;
34405;SDS011;20658;45.630;8.886;2022-11-15T09:13:40;28.17;;;16.42;;
34405;SDS011;20658;45.630;8.886;2022-11-15T09:16:27;24.80;;;14.85;;
34405;SDS011;20658;45.630;8.886;2022-11-15T09:19:17;27.45;;;17.40;;
34405;SDS011;20658;45.630;8.886;2022-11-15T09:22:06;23.73;;;14.65;;
34405;SDS011;20658;45.630;8.886;2022-11-15T09:24:54;26.60;;;15.80;;
34405;SDS011;20658;45.630;8.886;2022-11-15T09:27:41;26.58;;;16.20;;
34405;SDS011;20658;45.630;8.886;2022-11-15T09:30:33;28.38;;;16.45;;
34405;SDS011;20658;45.630;8.886;2022-11-15T09:33:26;24.83;;;15.55;;
34405;SDS011;20658;45.630;8.886;2022-11-15T09:36:18;30.33;;;17.75;;
34405;SDS011;20658;45.630;8.886;2022-11-15T09:39:06;29.23;;;17.85;;
34405;SDS011;20658;45.630;8.886;2022-11-15T09:42:05;31.67;;;18.20;;
34405;SDS011;20658;45.630;8.886;2022-11-15T09:48:17;26.55;;;18.02;;
34405;SDS011;20658;45.630;8.886;2022-11-15T09:51:28;33.53;;;20.55;;
34405;SDS011;20658;45.630;8.886;2022-11-15T09:54:04;36.83;;;26.40;;
34405;SDS011;20658;45.630;8.886;2022-11-15T09:56:40;34.10;;;24.80;;
34405;SDS011;20658;45.630;8.886;2022-11-15T09:59:23;34.38;;;24.58;;
34405;SDS011;20658;45.630;8.886;2022-11-15T10:02:12;32.33;;;21.30;;
34405;SDS011;20658;45.630;8.886;2022-11-15T10:04:51;32.92;;;20.95;;
34405;SDS011;20658;45.630;8.886;2022-11-15T10:07:26;30.75;;;21.88;;
34405;SDS011;20658;45.630;8.886;2022-11-15T10:10:04;30.27;;;20.73;;
34405;SDS011;20658;45.630;8.886;2022-11-15T10:12:48;28.88;;;20.42;;
34405;SDS011;20658;45.630;8.886;2022-11-15T10:15:24;29.52;;;20.33;;
34405;SDS011;20658;45.630;8.886;2022-11-15T10:18:03;30.15;;;20.88;;
34405;SDS011;20658;45.630;8.886;2022-11-15T10:20:45;29.70;;;20.65;;
34405;SDS011;20658;45.630;8.886;2022-11-15T10:23:17;34.60;;;23.85;;
34405;SDS011;20658;45.630;8.886;2022-11-15T10:25:55;35.33;;;24.33;;
34405;SDS011;20658;45.630;8.886;2022-11-15T10:28:27;37.58;;;25.63;;
34405;SDS011;20658;45.630;8.886;2022-11-15T10:31:02;33.65;;;21.15;;
34405;SDS011;20658;45.630;8.886;2022-11-15T10:33:38;33.50;;;21.48;;
34405;SDS011;20658;45.630;8.886;2022-11-15T10:36:16;35.88;;;23.60;;
34405;SDS011;20658;45.630;8.886;2022-11-15T10:38:53;35.53;;;24.40;;
34405;SDS011;20658;45.630;8.886;2022-11-15T10:41:34;32.33;;;21.98;;
34405;SDS011;20658;45.630;8.886;2022-11-15T10:44:21;32.10;;;20.70;;
34405;SDS011;20658;45.630;8.886;2022-11-15T10:47:04;31.73;;;21.55;;
34405;SDS011;20658;45.630;8.886;2022-11-15T10:49:53;33.78;;;21.45;;
34405;SDS011;20658;45.630;8.886;2022-11-15T10:52:33;32.17;;;23.38;;
34405;SDS011;20658;45.630;8.886;2022-11-15T10:55:12;35.13;;;23.17;;
34405;SDS011;20658;45.630;8.886;2022-11-15T10:57:54;31.58;;;22.25;;
34405;SDS011;20658;45.630;8.886;2022-11-15T11:00:34;34.00;;;23.90;;
34405;SDS011;20658;45.630;8.886;2022-11-15T11:03:05;31.23;;;21.40;;
34405;SDS011;20658;45.630;8.886;2022-11-15T11:06:05;32.10;;;22.52;;
34405;SDS011;20658;45.630;8.886;2022-11-15T11:08:38;34.13;;;23.55;;
34405;SDS011;20658;45.630;8.886;2022-11-15T11:11:07;39.75;;;28.02;;
34405;SDS011;20658;45.630;8.886;2022-11-15T11:13:38;37.47;;;26.27;;
34405;SDS011;20658;45.630;8.886;2022-11-15T11:16:22;34.08;;;24.58;;
34405;SDS011;20658;45.630;8.886;2022-11-15T11:19:19;34.47;;;24.88;;
34405;SDS011;20658;45.630;8.886;2022-11-15T11:22:15;35.78;;;25.50;;
34405;SDS011;20658;45.630;8.886;2022-11-15T11:27:59;35.47;;;25.17;;
34405;SDS011;20658;45.630;8.886;2022-11-15T11:30:46;39.03;;;25.77;;
34405;SDS011;20658;45.630;8.886;2022-11-15T11:33:29;36.38;;;26.17;;
34405;SDS011;20658;45.630;8.886;2022-11-15T11:36:05;39.03;;;26.88;;
34405;SDS011;20658;45.630;8.886;2022-11-15T11:38:53;37.20;;;26.95;;
34405;SDS011;20658;45.630;8.886;2022-11-15T11:44:31;38.00;;;29.25;;
34405;SDS011;20658;45.630;8.886;2022-11-15T11:47:17;41.13;;;28.95;;
34405;SDS011;20658;45.630;8.886;2022-11-15T11:49:51;41.67;;;30.08;;
34405;SDS011;20658;45.630;8.886;2022-11-15T11:52:25;37.28;;;28.40;;
34405;SDS011;20658;45.630;8.886;2022-11-15T11:55:00;37.30;;;26.27;;
34405;SDS011;20658;45.630;8.886;2022-11-15T11:57:40;40.10;;;28.80;;
34405;SDS011;20658;45.630;8.886;2022-11-15T12:00:15;39.80;;;27.45;;
34405;SDS011;20658;45.630;8.886;2022-11-15T12:02:59;39.08;;;28.35;;
34405;SDS011;20658;45.630;8.886;2022-11-15T12:05:36;39.78;;;28.92;;
34405;SDS011;20658;45.630;8.886;2022-11-15T12:08:17;43.85;;;31.08;;
34405;SDS011;20658;45.630;8.886;2022-11-15T12:11:01;42.17;;;29.88;;
34405;SDS011;20658;45.630;8.886;2022-11-15T12:13:38;42.38;;;31.40;;
34405;SDS011;20658;45.630;8.886;2022-11-15T12:16:09;41.72;;;31.25;;
34405;SDS011;20658;45.630;8.886;2022-11-15T12:18:44;36.65;;;28.33;;
34405;SDS011;20658;45.630;8.886;2022-11-15T12:21:18;39.13;;;27.35;;
34405;SDS011;20658;45.630;8.886;2022-11-15T12:23:55;42.88;;;28.15;;
34405;SDS011;20658;45.630;8.886;2022-11-15T12:26:31;38.55;;;27.50;;
34405;SDS011;20658;45.630;8.886;2022-11-15T12:29:11;41.20;;;30.15;;
34405;SDS011;20658;45.630;8.886;2022-11-15T12:31:47;37.60;;;28.00;;
34405;SDS011;20658;45.630;8.886;2022-11-15T12:34:41;40.42;;;29.98;;
34405;SDS011;20658;45.630;8.886;2022-11-15T12:40:31;40.22;;;30.95;;
34405;SDS011;20658;45.630;8.886;2022-11-15T12:46:10;41.05;;;30.83;;
34405;SDS011;20658;45.630;8.886;2022-11-15T12:48:48;42.50;;;31.88;;
34405;SDS011;20658;45.630;8.886;2022-11-15T12:54:54;36.22;;;25.67;;
34405;SDS011;20658;45.630;8.886;2022-11-15T12:57:36;37.25;;;26.67;;
34405;SDS011;20658;45.630;8.886;2022-11-15T13:06:40;36.95;;;26.67;;
34405;SDS011;20658;45.630;8.886;2022-11-15T13:15:38;42.67;;;28.58;;
34405;SDS011;20658;45.630;8.886;2022-11-15T13:18:27;39.42;;;28.67;;
34405;SDS011;20658;45.630;8.886;2022-11-15T13:21:05;39.35;;;27.70;;
34405;SDS011;20658;45.630;8.886;2022-11-15T13:24:11;38.03;;;28.50;;
34405;SDS011;20658;45.630;8.886;2022-11-15T13:26:41;40.55;;;26.10;;
34405;SDS011;20658;45.630;8.886;2022-11-15T13:29:17;37.60;;;27.75;;
34405;SDS011;20658;45.630;8.886;2022-11-15T13:31:47;36.85;;;25.30;;
34405;SDS011;20658;45.630;8.886;2022-11-15T13:34:24;39.83;;;27.85;;
34405;SDS011;20658;45.630;8.886;2022-11-15T13:36:59;39.80;;;27.00;;
34405;SDS011;20658;45.630;8.886;2022-11-15T13:39:30;40.03;;;26.30;;
34405;SDS011;20658;45.630;8.886;2022-11-15T13:42:12;41.47;;;28.45;;
34405;SDS011;20658;45.630;8.886;2022-11-15T13:44:53;45.28;;;30.48;;
34405;SDS011;20658;45.630;8.886;2022-11-15T13:47:24;38.75;;;27.55;;
34405;SDS011;20658;45.630;8.886;2022-11-15T13:49:56;38.90;;;27.98;;
34405;SDS011;20658;45.630;8.886;2022-11-15T13:52:26;40.65;;;27.63;;
34405;SDS011;20658;45.630;8.886;2022-11-15T13:55:00;36.95;;;26.85;;
34405;SDS011;20658;45.630;8.886;2022-11-15T13:57:40;36.80;;;26.48;;
34405;SDS011;20658;45.630;8.886;2022-11-15T14:00:24;36.67;;;25.92;;
34405;SDS011;20658;45.630;8.886;2022-11-15T14:03:04;32.63;;;23.95;;
34405;SDS011;20658;45.630;8.886;2022-11-15T14:05:40;35.90;;;25.33;;
34405;SDS011;20658;45.630;8.886;2022-11-15T14:08:13;37.13;;;25.77;;
34405;SDS011;20658;45.630;8.886;2022-11-15T14:13:40;30.60;;;21.95;;
34405;SDS011;20658;45.630;8.886;2022-11-15T14:16:15;32.13;;;22.42;;
34405;SDS011;20658;45.630;8.886;2022-11-15T14:18:47;34.33;;;24.35;;
34405;SDS011;20658;45.630;8.886;2022-11-15T14:21:18;35.55;;;24.98;;
34405;SDS011;20658;45.630;8.886;2022-11-15T14:23:47;37.88;;;26.23;;
34405;SDS011;20658;45.630;8.886;2022-11-15T14:26:27;40.03;;;27.95;;
34405;SDS011;20658;45.630;8.886;2022-11-15T14:32:05;39.20;;;29.08;;
34405;SDS011;20658;45.630;8.886;2022-11-15T14:34:40;37.90;;;28.13;;
34405;SDS011;20658;45.630;8.886;2022-11-15T14:37:16;42.53;;;30.63;;
34405;SDS011;20658;45.630;8.886;2022-11-15T14:39:55;39.22;;;28.67;;
34405;SDS011;20658;45.630;8.886;2022-11-15T14:42:30;40.05;;;29.85;;
34405;SDS011;20658;45.630;8.886;2022-11-15T14:45:08;41.80;;;30.13;;
34405;SDS011;20658;45.630;8.886;2022-11-15T14:47:46;36.00;;;27.05;;
34405;SDS011;20658;45.630;8.886;2022-11-15T14:50:20;41.10;;;28.52;;
34405;SDS011;20658;45.630;8.886;2022-11-15T14:52:54;37.50;;;27.40;;
34405;SDS011;20658;45.630;8.886;2022-11-15T14:59:30;36.85;;;28.02;;
34405;SDS011;20658;45.630;8.886;2022-11-15T15:01:58;37.97;;;28.17;;
34405;SDS011;20658;45.630;8.886;2022-11-15T15:04:27;40.95;;;29.60;;
34405;SDS011;20658;45.630;8.886;2022-11-15T15:06:56;46.95;;;33.63;;
34405;SDS011;20658;45.630;8.886;2022-11-15T15:09:24;49.35;;;33.35;;
34405;SDS011;20658;45.630;8.886;2022-11-15T15:11:57;48.90;;;31.30;;
34405;SDS011;20658;45.630;8.886;2022-11-15T15:14:26;41.90;;;27.90;;
34405;SDS011;20658;45.630;8.886;2022-11-15T15:17:01;74.00;;;48.10;;
34405;SDS011;20658;45.630;8.886;2022-11-15T15:19:35;58.53;;;42.55;;
34405;SDS011;20658;45.630;8.886;2022-11-15T15:22:03;66.25;;;57.00;;
34405;SDS011;20658;45.630;8.886;2022-11-15T15:24:32;49.42;;;38.20;;
34405;SDS011;20658;45.630;8.886;2022-11-15T15:27:00;65.20;;;57.95;;
34405;SDS011;20658;45.630;8.886;2022-11-15T15:29:34;45.67;;;34.90;;
34405;SDS011;20658;45.630;8.886;2022-11-15T15:32:05;40.40;;;29.38;;
34405;SDS011;20658;45.630;8.886;2022-11-15T15:34:39;39.97;;;30.23;;
34405;SDS011;20658;45.630;8.886;2022-11-15T15:37:19;41.17;;;30.45;;
34405;SDS011;20658;45.630;8.886;2022-11-15T15:39:56;41.80;;;31.48;;
34405;SDS011;20658;45.630;8.886;2022-11-15T15:42:25;40.90;;;28.83;;
34405;SDS011;20658;45.630;8.886;2022-11-15T15:44:58;41.90;;;31.13;;
34405;SDS011;20658;45.630;8.886;2022-11-15T15:47:33;46.88;;;38.15;;
34405;SDS011;20658;45.630;8.886;2022-11-15T15:50:12;38.50;;;29.42;;
34405;SDS011;20658;45.630;8.886;2022-11-15T15:52:55;40.80;;;29.42;;
34405;SDS011;20658;45.630;8.886;2022-11-15T15:55:25;42.72;;;31.92;;
34405;SDS011;20658;45.630;8.886;2022-11-15T15:57:59;42.53;;;32.13;;
34405;SDS011;20658;45.630;8.886;2022-11-15T16:00:32;47.30;;;33.22;;
34405;SDS011;20658;45.630;8.886;2022-11-15T16:03:02;52.47;;;36.92;;
34405;SDS011;20658;45.630;8.886;2022-11-15T16:05:31;41.33;;;30.63;;
34405;SDS011;20658;45.630;8.886;2022-11-15T16:07:59;37.13;;;27.17;;
34405;SDS011;20658;45.630;8.886;2022-11-15T16:10:33;37.45;;;27.05;;
34405;SDS011;20658;45.630;8.886;2022-11-15T16:13:08;38.88;;;27.90;;
34405;SDS011;20658;45.630;8.886;2022-11-15T16:15:41;51.90;;;42.60;;
34405;SDS011;20658;45.630;8.886;2022-11-15T16:18:17;47.90;;;35.38;;
34405;SDS011;20658;45.630;8.886;2022-11-15T16:20:47;41.05;;;31.55;;
34405;SDS011;20658;45.630;8.886;2022-11-15T16:23:18;43.92;;;30.77;;
34405;SDS011;20658;45.630;8.886;2022-11-15T16:25:54;43.20;;;30.45;;
34405;SDS011;20658;45.630;8.886;2022-11-15T16:28:29;36.00;;;25.33;;
34405;SDS011;20658;45.630;8.886;2022-11-15T16:30:59;37.95;;;26.48;;
34405;SDS011;20658;45.630;8.886;2022-11-15T16:33:36;37.03;;;23.95;;
34405;SDS011;20658;45.630;8.886;2022-11-15T16:36:14;32.83;;;23.80;;
34405;SDS011;20658;45.630;8.886;2022-11-15T16:38:49;33.33;;;23.80;;
34405;SDS011;20658;45.630;8.886;2022-11-15T16:41:23;29.65;;;20.77;;
34405;SDS011;20658;45.630;8.886;2022-11-15T16:43:51;31.10;;;22.70;;
34405;SDS011;20658;45.630;8.886;2022-11-15T16:46:20;35.28;;;22.05;;
34405;SDS011;20658;45.630;8.886;2022-11-15T16:48:52;30.27;;;21.83;;
34405;SDS011;20658;45.630;8.886;2022-11-15T16:51:21;28.75;;;18.80;;
34405;SDS011;20658;45.630;8.886;2022-11-15T16:53:50;33.67;;;25.02;;
34405;SDS011;20658;45.630;8.886;2022-11-15T16:56:21;92.50;;;73.68;;
34405;SDS011;20658;45.630;8.886;2022-11-15T16:58:57;53.70;;;40.20;;
34405;SDS011;20658;45.630;8.886;2022-11-15T17:01:32;42.53;;;30.30;;